createdAt,value
2022-09-16T00:00:44.358Z,10.95
2022-09-16T00:03:12.666Z,8.23
2022-09-16T00:05:43.543Z,7.45
2022-09-16T00:08:11.015Z,8.48
2022-09-16T00:10:37.714Z,10.07
2022-09-16T00:13:05.124Z,7.90
2022-09-16T00:15:32.415Z,10.35
2022-09-16T00:17:59.607Z,8.93
2022-09-16T00:20:26.616Z,9.27
2022-09-16T00:22:53.593Z,10.93
2022-09-16T00:25:20.481Z,11.48
2022-09-16T00:27:50.117Z,8.55
2022-09-16T00:30:17.286Z,7.88
2022-09-16T00:32:44.758Z,8.40
2022-09-16T00:35:11.369Z,12.25
2022-09-16T00:37:37.993Z,9.77
2022-09-16T00:40:05.409Z,7.95
2022-09-16T00:42:37.670Z,8.07
2022-09-16T00:45:17.146Z,7.70
2022-09-16T00:47:48.713Z,8.93
2022-09-16T00:50:40.585Z,9.43
2022-09-16T00:53:17.765Z,12.00
2022-09-16T00:55:45.629Z,11.90
2022-09-16T00:58:22.743Z,9.20
2022-09-16T01:00:50.434Z,9.27
2022-09-16T01:03:17.623Z,6.13
2022-09-16T01:05:45.194Z,10.75
2022-09-16T01:08:12.122Z,7.13
2022-09-16T01:10:41.938Z,8.05
2022-09-16T01:13:11.386Z,8.18
2022-09-16T01:15:54.779Z,8.60
2022-09-16T01:18:34.447Z,7.60
2022-09-16T01:21:16.448Z,7.93
2022-09-16T01:24:00.745Z,8.70
2022-09-16T01:29:18.382Z,9.00
2022-09-16T01:32:27.208Z,6.72
2022-09-16T01:35:08.426Z,7.47
2022-09-16T01:37:57.377Z,11.35
2022-09-16T01:40:38.969Z,12.23
2022-09-16T01:43:40.323Z,7.82
2022-09-16T01:46:36.145Z,8.77
2022-09-16T01:49:06.266Z,9.88
2022-09-16T01:51:44.167Z,9.02
2022-09-16T01:54:17.508Z,10.80
2022-09-16T01:57:01.760Z,8.07
2022-09-16T02:02:14.563Z,9.60
2022-09-16T02:04:51.099Z,7.95
2022-09-16T02:07:21.804Z,8.40
2022-09-16T02:10:13.325Z,10.05
2022-09-16T02:12:42.988Z,10.30
2022-09-16T02:15:13.593Z,9.75
2022-09-16T02:17:48.741Z,9.23
2022-09-16T02:20:24.561Z,10.02
2022-09-16T02:23:19.909Z,10.10
2022-09-16T02:25:48.968Z,9.15
2022-09-16T02:28:24.074Z,8.70
2022-09-16T02:30:53.729Z,7.82
2022-09-16T02:33:22.752Z,10.90
2022-09-16T02:35:52.547Z,12.77
2022-09-16T02:38:24.925Z,8.93
2022-09-16T02:40:56.100Z,8.63
2022-09-16T02:43:24.021Z,10.02
2022-09-16T02:46:10.577Z,9.88
2022-09-16T02:49:01.927Z,8.32
2022-09-16T02:51:43.492Z,9.85
2022-09-16T02:54:46.910Z,10.52
2022-09-16T02:57:14.446Z,10.70
2022-09-16T02:59:41.985Z,9.20
2022-09-16T03:02:08.864Z,9.00
2022-09-16T03:04:36.200Z,8.60
2022-09-16T03:07:08.171Z,8.57
2022-09-16T03:09:37.884Z,8.00
2022-09-16T03:12:23.415Z,8.73
2022-09-16T03:14:53.102Z,8.88
2022-09-16T03:18:03.909Z,12.00
2022-09-16T03:20:41.972Z,13.68
2022-09-16T03:23:28.624Z,8.65
2022-09-16T03:26:10.246Z,9.20
2022-09-16T03:29:00.785Z,10.65
2022-09-16T03:31:32.220Z,11.98
2022-09-16T03:34:06.891Z,6.55
2022-09-16T03:36:39.332Z,13.00
2022-09-16T03:39:06.342Z,8.35
2022-09-16T03:41:34.647Z,10.80
2022-09-16T03:44:04.051Z,8.65
2022-09-16T03:46:31.724Z,9.02
2022-09-16T03:48:59.241Z,6.97
2022-09-16T03:51:26.637Z,9.45
2022-09-16T03:53:54.084Z,8.27
2022-09-16T03:56:23.268Z,9.95
2022-09-16T03:58:50.116Z,9.90
2022-09-16T04:01:16.750Z,9.73
2022-09-16T04:03:43.342Z,11.27
2022-09-16T04:06:09.987Z,10.73
2022-09-16T04:08:37.203Z,11.50
2022-09-16T04:11:06.588Z,12.20
2022-09-16T04:13:34.194Z,10.98
2022-09-16T04:16:02.277Z,10.23
2022-09-16T04:18:31.158Z,11.35
2022-09-16T04:20:58.898Z,12.48
2022-09-16T04:23:26.606Z,10.63
2022-09-16T04:25:57.683Z,10.98
2022-09-16T04:28:24.928Z,10.52
2022-09-16T04:30:52.108Z,12.07
2022-09-16T04:33:19.177Z,11.80
2022-09-16T04:35:45.808Z,12.20
2022-09-16T04:38:12.428Z,10.52
2022-09-16T04:40:39.952Z,11.45
2022-09-16T04:43:06.637Z,10.27
2022-09-16T04:45:33.514Z,11.65
2022-09-16T04:48:00.122Z,11.77
2022-09-16T04:50:26.836Z,11.88
2022-09-16T04:52:53.460Z,13.98
2022-09-16T04:55:22.903Z,13.40
2022-09-16T04:57:50.164Z,12.38
2022-09-16T05:00:16.903Z,15.55
2022-09-16T05:02:46.752Z,12.93
2022-09-16T05:05:13.479Z,13.10
2022-09-16T05:07:40.101Z,13.10
2022-09-16T05:10:07.096Z,14.55
2022-09-16T05:12:36.624Z,15.10
2022-09-16T05:15:03.793Z,14.05
2022-09-16T05:17:49.817Z,13.48
2022-09-16T05:20:17.631Z,13.73
2022-09-16T05:22:44.448Z,16.80
2022-09-16T05:25:11.582Z,12.90
2022-09-16T05:27:38.345Z,13.32
2022-09-16T05:30:05.417Z,16.30
2022-09-16T05:32:32.963Z,15.27
2022-09-16T05:34:59.584Z,15.15
2022-09-16T05:37:26.347Z,15.52
2022-09-16T05:39:53.189Z,16.30
2022-09-16T05:42:19.827Z,14.43
2022-09-16T05:44:46.405Z,15.93
2022-09-16T05:47:12.991Z,14.02
2022-09-16T05:49:39.538Z,13.05
2022-09-16T05:52:06.086Z,16.75
2022-09-16T05:54:32.666Z,15.77
2022-09-16T05:57:03.266Z,16.35
2022-09-16T05:59:32.663Z,17.58
2022-09-16T06:01:59.306Z,14.88
2022-09-16T06:04:25.927Z,14.25
2022-09-16T06:06:52.565Z,13.25
2022-09-16T06:09:24.508Z,14.05
2022-09-16T06:11:56.685Z,12.95
2022-09-16T06:14:28.264Z,13.82
2022-09-16T06:16:54.984Z,14.32
2022-09-16T06:19:21.667Z,15.88
2022-09-16T06:21:49.023Z,13.30
2022-09-16T06:24:17.352Z,14.05
2022-09-16T06:26:45.671Z,14.68
2022-09-16T06:29:13.440Z,14.93
2022-09-16T06:31:40.514Z,16.55
2022-09-16T06:34:08.525Z,16.63
2022-09-16T06:36:40.394Z,14.93
2022-09-16T06:39:12.190Z,13.75
2022-09-16T06:41:38.795Z,15.80
2022-09-16T06:44:05.330Z,15.48
2022-09-16T06:46:31.900Z,17.73
2022-09-16T06:49:01.591Z,14.25
2022-09-16T06:51:32.335Z,14.52
2022-09-16T06:54:01.927Z,16.42
2022-09-16T06:56:28.523Z,14.02
2022-09-16T06:58:55.811Z,15.98
2022-09-16T07:01:25.446Z,16.20
2022-09-16T07:03:54.198Z,16.80
2022-09-16T07:06:26.656Z,16.00
2022-09-16T07:09:05.599Z,12.38
2022-09-16T07:11:32.412Z,25.23
2022-09-16T07:14:00.268Z,15.95
2022-09-16T07:16:27.250Z,16.05
2022-09-16T07:19:00.616Z,14.80
2022-09-16T07:21:30.003Z,18.20
2022-09-16T07:23:58.742Z,17.70
2022-09-16T07:26:28.957Z,21.15
2022-09-16T07:28:58.161Z,13.68
2022-09-16T07:31:28.032Z,16.60
2022-09-16T07:34:02.865Z,17.25
2022-09-16T07:36:33.504Z,14.00
2022-09-16T07:39:00.458Z,14.07
2022-09-16T07:41:33.218Z,14.82
2022-09-16T07:44:01.038Z,20.10
2022-09-16T07:46:31.486Z,14.00
2022-09-16T07:49:00.224Z,12.25
2022-09-16T07:51:28.472Z,17.83
2022-09-16T07:53:59.238Z,12.98
2022-09-16T07:56:28.938Z,15.90
2022-09-16T07:58:57.041Z,15.20
2022-09-16T08:01:24.839Z,17.42
2022-09-16T08:03:51.907Z,15.68
2022-09-16T08:06:21.701Z,16.00
2022-09-16T08:08:51.068Z,14.65
2022-09-16T08:11:17.693Z,15.02
2022-09-16T08:13:46.216Z,13.45
2022-09-16T08:16:15.846Z,14.75
2022-09-16T08:18:43.306Z,14.15
2022-09-16T08:21:12.834Z,13.88
2022-09-16T08:23:39.987Z,16.15
2022-09-16T08:26:09.631Z,14.48
2022-09-16T08:28:50.908Z,15.55
2022-09-16T08:31:24.789Z,15.70
2022-09-16T08:33:51.477Z,16.08
2022-09-16T08:36:20.768Z,14.65
2022-09-16T08:38:49.413Z,14.63
2022-09-16T08:41:34.856Z,16.33
2022-09-16T08:44:23.444Z,12.75
2022-09-16T08:46:58.820Z,14.50
2022-09-16T08:49:34.346Z,13.48
2022-09-16T08:52:11.875Z,14.07
2022-09-16T08:54:40.731Z,12.65
2022-09-16T08:57:13.457Z,14.90
2022-09-16T08:59:46.168Z,14.07
2022-09-16T09:02:32.066Z,13.60
2022-09-16T09:04:59.263Z,15.20
2022-09-16T09:07:26.267Z,15.45
2022-09-16T09:10:08.448Z,16.35
2022-09-16T09:12:38.629Z,15.93
2022-09-16T09:15:12.064Z,16.45
2022-09-16T09:17:49.146Z,16.05
2022-09-16T09:20:19.557Z,13.70
2022-09-16T09:23:13.015Z,14.40
2022-09-16T09:25:42.852Z,15.15
2022-09-16T09:28:37.907Z,12.80
2022-09-16T09:31:20.262Z,15.23
2022-09-16T09:33:55.713Z,16.30
2022-09-16T09:36:50.143Z,14.02
2022-09-16T09:39:42.961Z,15.63
2022-09-16T09:42:17.538Z,15.68
2022-09-16T09:45:09.556Z,15.30
2022-09-16T09:47:47.274Z,13.63
2022-09-16T09:50:26.010Z,16.33
2022-09-16T09:53:28.558Z,14.50
2022-09-16T09:56:08.734Z,16.73
2022-09-16T09:58:43.932Z,17.73
2022-09-16T10:01:11.468Z,16.33
2022-09-16T10:03:40.076Z,34.45
2022-09-16T10:06:07.206Z,31.45
2022-09-16T10:08:46.115Z,56.28
2022-09-16T10:11:17.569Z,30.33
2022-09-16T10:13:53.008Z,18.42
2022-09-16T10:16:22.828Z,54.35
2022-09-16T10:19:06.048Z,19.45
2022-09-16T10:21:44.787Z,17.55
2022-09-16T10:24:42.040Z,16.60
2022-09-16T10:27:20.049Z,18.00
2022-09-16T10:29:47.125Z,39.25
2022-09-16T10:32:19.232Z,20.63
2022-09-16T10:34:46.575Z,24.90
2022-09-16T10:37:13.437Z,21.75
2022-09-16T10:39:44.819Z,23.92
2022-09-16T10:42:37.747Z,22.27
2022-09-16T10:45:16.335Z,22.40
2022-09-16T10:47:50.490Z,28.58
2022-09-16T10:50:19.485Z,19.33
2022-09-16T10:52:48.114Z,22.38
2022-09-16T10:55:38.593Z,13.30
2022-09-16T10:58:18.770Z,16.20
2022-09-16T11:00:55.063Z,15.25
2022-09-16T11:03:35.981Z,17.00
2022-09-16T11:06:19.128Z,14.57
2022-09-16T11:08:55.665Z,14.40
2022-09-16T11:11:42.877Z,16.48
2022-09-16T11:14:40.308Z,15.27
2022-09-16T11:17:11.261Z,17.48
2022-09-16T11:19:49.927Z,15.38
2022-09-16T11:22:34.984Z,15.90
2022-09-16T11:25:18.957Z,15.07
2022-09-16T11:28:08.195Z,16.27
2022-09-16T11:30:47.366Z,14.27
2022-09-16T11:33:29.038Z,15.07
2022-09-16T11:36:49.347Z,14.75
2022-09-16T11:39:55.037Z,16.35
2022-09-16T11:42:57.891Z,15.15
2022-09-16T11:45:50.612Z,12.13
2022-09-16T11:48:38.821Z,12.02
2022-09-16T11:51:39.283Z,16.73
2022-09-16T11:54:17.960Z,15.05
2022-09-16T11:56:52.513Z,25.10
2022-09-16T11:59:22.965Z,13.32
2022-09-16T12:01:56.656Z,22.40
2022-09-16T12:04:26.856Z,14.32
2022-09-16T12:07:15.496Z,15.18
2022-09-16T12:09:45.071Z,15.32
2022-09-16T12:12:22.024Z,17.90
2022-09-16T12:15:05.427Z,13.20
2022-09-16T12:17:36.767Z,15.90
2022-09-16T12:20:29.488Z,18.83
2022-09-16T12:23:12.447Z,13.88
2022-09-16T12:26:08.141Z,13.45
2022-09-16T12:28:43.846Z,13.48
2022-09-16T12:31:29.200Z,13.00
2022-09-16T12:34:12.151Z,10.27
2022-09-16T12:36:43.015Z,12.63
2022-09-16T12:39:12.559Z,12.32
2022-09-16T12:41:45.291Z,15.60
2022-09-16T12:44:34.713Z,12.23
2022-09-16T12:47:16.361Z,14.98
2022-09-16T12:50:10.944Z,15.60
2022-09-16T12:52:55.606Z,14.15
2022-09-16T12:55:31.044Z,11.73
2022-09-16T12:58:22.397Z,12.15
2022-09-16T13:01:40.570Z,11.68
2022-09-16T13:04:29.500Z,10.40
2022-09-16T13:07:01.244Z,9.88
2022-09-16T13:09:36.201Z,11.07
2022-09-16T13:15:05.456Z,10.93
2022-09-16T13:17:37.808Z,10.05
2022-09-16T13:20:25.730Z,9.48
2022-09-16T13:22:54.995Z,11.25
2022-09-16T13:25:49.862Z,12.93
2022-09-16T13:28:26.376Z,12.07
2022-09-16T13:30:53.184Z,10.23
2022-09-16T13:33:28.054Z,9.82
2022-09-16T13:36:17.900Z,10.48
2022-09-16T13:38:49.587Z,10.82
2022-09-16T13:41:40.337Z,12.18
2022-09-16T13:44:38.411Z,9.80
2022-09-16T13:47:11.085Z,10.90
2022-09-16T13:49:57.417Z,6.68
2022-09-16T13:52:33.353Z,8.85
2022-09-16T13:55:10.888Z,8.35
2022-09-16T13:57:58.561Z,11.18
2022-09-16T14:00:33.806Z,11.95
2022-09-16T14:03:20.798Z,8.07
2022-09-16T14:06:03.714Z,9.50
2022-09-16T14:08:40.352Z,7.00
2022-09-16T14:11:10.086Z,11.55
2022-09-16T14:13:50.527Z,8.93
2022-09-16T14:16:26.176Z,8.57
2022-09-16T14:19:06.711Z,9.05
2022-09-16T14:21:33.838Z,9.45
2022-09-16T14:24:19.894Z,8.55
2022-09-16T14:26:52.118Z,11.23
2022-09-16T14:29:19.051Z,10.73
2022-09-16T14:31:46.008Z,8.25
2022-09-16T14:34:21.175Z,10.90
2022-09-16T14:36:48.285Z,9.48
2022-09-16T14:39:17.868Z,8.73
2022-09-16T14:42:14.904Z,8.77
2022-09-16T14:44:46.716Z,8.77
2022-09-16T14:47:50.225Z,8.38
2022-09-16T14:50:27.117Z,9.40
2022-09-16T14:53:05.769Z,8.48
2022-09-16T14:55:36.132Z,7.50
2022-09-16T14:58:03.650Z,9.18
2022-09-16T15:00:42.311Z,7.07
2022-09-16T15:03:22.689Z,7.88
2022-09-16T15:05:50.076Z,9.75
2022-09-16T15:08:19.388Z,9.07
2022-09-16T15:10:52.769Z,10.10
2022-09-16T15:13:24.036Z,6.47
2022-09-16T15:16:03.207Z,8.02
2022-09-16T15:18:35.285Z,11.35
2022-09-16T15:21:05.608Z,12.25
2022-09-16T15:23:33.360Z,9.38
2022-09-16T15:26:15.784Z,9.48
2022-09-16T15:29:02.221Z,9.15
2022-09-16T15:31:34.606Z,8.07
2022-09-16T15:34:22.600Z,8.40
2022-09-16T15:36:54.839Z,9.02
2022-09-16T15:39:37.630Z,7.13
2022-09-16T15:42:14.322Z,10.23
2022-09-16T15:44:50.123Z,10.23
2022-09-16T15:47:25.085Z,12.82
2022-09-16T15:50:03.790Z,6.78
2022-09-16T15:52:46.510Z,9.85
2022-09-16T15:55:13.143Z,9.25
2022-09-16T15:57:44.476Z,10.32
2022-09-16T16:00:14.730Z,11.43
2022-09-16T16:03:17.039Z,10.23
2022-09-16T16:05:51.569Z,12.32
2022-09-16T16:08:37.984Z,11.20
2022-09-16T16:11:09.913Z,8.80
2022-09-16T16:13:36.729Z,7.57
2022-09-16T16:16:06.385Z,8.25
2022-09-16T16:18:33.115Z,10.15
2022-09-16T16:21:04.145Z,13.63
2022-09-16T16:23:30.810Z,11.02
2022-09-16T16:25:57.426Z,10.73
2022-09-16T16:28:24.023Z,8.60
2022-09-16T16:30:50.973Z,9.60
2022-09-16T16:33:17.666Z,11.25
2022-09-16T16:35:44.249Z,9.00
2022-09-16T16:38:10.910Z,8.32
2022-09-16T16:40:37.609Z,9.77
2022-09-16T16:43:04.579Z,9.95
2022-09-16T16:45:31.228Z,7.30
2022-09-16T16:47:57.845Z,9.32
2022-09-16T16:50:24.397Z,9.15
2022-09-16T16:52:53.219Z,10.32
2022-09-16T16:55:19.814Z,8.98
2022-09-16T16:57:46.418Z,9.57
2022-09-16T17:00:14.390Z,12.20
2022-09-16T17:02:41.354Z,10.60
2022-09-16T17:05:08.367Z,8.63
2022-09-16T17:07:34.929Z,11.85
2022-09-16T17:10:01.519Z,12.70
2022-09-16T17:12:28.120Z,8.45
2022-09-16T17:14:54.984Z,9.02
2022-09-16T17:17:21.996Z,9.60
2022-09-16T17:19:48.578Z,10.32
2022-09-16T17:22:15.879Z,12.20
2022-09-16T17:24:42.463Z,10.13
2022-09-16T17:27:09.045Z,8.02
2022-09-16T17:29:35.632Z,10.88
2022-09-16T17:32:02.931Z,13.52
2022-09-16T17:34:30.095Z,10.07
2022-09-16T17:36:58.227Z,8.85
2022-09-16T17:39:24.900Z,10.75
2022-09-16T17:41:51.546Z,10.13
2022-09-16T17:44:19.089Z,9.35
2022-09-16T17:46:46.743Z,8.82
2022-09-16T17:49:21.707Z,14.15
2022-09-16T17:51:49.729Z,10.90
2022-09-16T17:54:16.832Z,10.15
2022-09-16T17:56:43.998Z,12.18
2022-09-16T17:59:13.774Z,10.85
2022-09-16T18:01:40.544Z,11.10
2022-09-16T18:04:07.874Z,9.65
2022-09-16T18:06:43.005Z,9.85
2022-09-16T18:09:10.694Z,9.55
2022-09-16T18:11:38.674Z,11.63
2022-09-16T18:14:07.850Z,9.00
2022-09-16T18:16:34.691Z,11.23
2022-09-16T18:19:02.430Z,13.15
2022-09-16T18:21:30.139Z,14.32
2022-09-16T18:24:02.555Z,9.27
2022-09-16T18:26:30.509Z,13.02
2022-09-16T18:29:13.870Z,12.85
2022-09-16T18:31:46.519Z,11.50
2022-09-16T18:34:14.017Z,11.88
2022-09-16T18:36:41.293Z,11.00
2022-09-16T18:39:13.195Z,11.75
2022-09-16T18:41:41.406Z,11.38
2022-09-16T18:44:16.090Z,11.60
2022-09-16T18:46:43.370Z,12.13
2022-09-16T18:49:14.904Z,10.70
2022-09-16T18:51:49.799Z,11.55
2022-09-16T18:54:28.951Z,13.60
2022-09-16T18:56:57.356Z,9.00
2022-09-16T18:59:28.065Z,9.88
2022-09-16T19:01:58.508Z,8.98
2022-09-16T19:04:28.078Z,9.95
2022-09-16T19:06:57.011Z,11.55
2022-09-16T19:09:24.348Z,9.95
2022-09-16T19:11:54.823Z,11.88
2022-09-16T19:14:24.390Z,9.88
2022-09-16T19:16:51.680Z,9.32
2022-09-16T19:19:19.358Z,12.13
2022-09-16T19:21:46.500Z,11.60
2022-09-16T19:24:18.904Z,11.45
2022-09-16T19:26:47.235Z,12.55
2022-09-16T19:29:15.262Z,10.27
2022-09-16T19:31:43.789Z,9.38
2022-09-16T19:34:11.018Z,11.30
2022-09-16T19:36:38.190Z,11.52
2022-09-16T19:39:06.161Z,10.02
2022-09-16T19:41:35.825Z,11.35
2022-09-16T19:44:05.344Z,14.00
2022-09-16T19:46:37.498Z,10.93
2022-09-16T19:49:06.709Z,10.05
2022-09-16T19:51:33.738Z,8.00
2022-09-16T19:54:01.082Z,12.93
2022-09-16T19:56:30.774Z,12.25
2022-09-16T19:58:57.758Z,9.60
2022-09-16T20:01:27.115Z,10.70
2022-09-16T20:03:54.515Z,9.93
2022-09-16T20:06:36.384Z,10.25
2022-09-16T20:09:13.352Z,14.40
2022-09-16T20:11:42.930Z,11.40
2022-09-16T20:14:17.669Z,11.23
2022-09-16T20:16:44.420Z,9.43
2022-09-16T20:19:13.849Z,11.98
2022-09-16T20:21:41.047Z,10.00
2022-09-16T20:24:13.069Z,13.40
2022-09-16T20:26:39.614Z,10.68
2022-09-16T20:29:06.278Z,9.27
2022-09-16T20:31:35.575Z,10.38
2022-09-16T20:34:03.471Z,11.13
2022-09-16T20:36:31.677Z,11.52
2022-09-16T20:39:01.253Z,11.32
2022-09-16T20:41:30.393Z,13.07
2022-09-16T20:43:58.899Z,11.38
2022-09-16T20:46:31.489Z,8.90
2022-09-16T20:49:01.565Z,11.07
2022-09-16T20:51:31.382Z,10.90
2022-09-16T20:54:04.947Z,10.75
2022-09-16T20:56:38.032Z,10.93
2022-09-16T20:59:07.340Z,15.75
2022-09-16T21:01:34.819Z,11.25
2022-09-16T21:04:07.631Z,9.00
2022-09-16T21:06:35.593Z,11.63
2022-09-16T21:09:05.392Z,10.70
2022-09-16T21:11:33.078Z,10.85
2022-09-16T21:14:06.821Z,10.15
2022-09-16T21:16:36.368Z,13.85
2022-09-16T21:19:05.580Z,12.75
2022-09-16T21:21:32.283Z,9.70
2022-09-16T21:24:01.269Z,9.38
2022-09-16T21:26:30.916Z,10.00
2022-09-16T21:29:03.679Z,12.20
2022-09-16T21:31:37.999Z,12.20
2022-09-16T21:34:06.560Z,12.32
2022-09-16T21:36:35.251Z,11.43
2022-09-16T21:39:02.260Z,10.52
2022-09-16T21:41:29.095Z,14.52
2022-09-16T21:43:57.330Z,9.82
2022-09-16T21:46:29.204Z,11.57
2022-09-16T21:48:58.324Z,10.95
2022-09-16T21:51:25.073Z,11.15
2022-09-16T21:53:51.890Z,13.25
2022-09-16T21:56:23.131Z,11.07
2022-09-16T21:58:53.054Z,11.25
2022-09-16T22:01:25.256Z,10.27
2022-09-16T22:03:57.276Z,11.10
2022-09-16T22:06:27.539Z,11.85
2022-09-16T22:08:55.643Z,12.07
2022-09-16T22:11:25.554Z,12.77
2022-09-16T22:13:53.762Z,13.23
2022-09-16T22:16:27.107Z,11.57
2022-09-16T22:19:01.918Z,12.63
2022-09-16T22:21:30.897Z,12.85
2022-09-16T22:23:59.424Z,11.80
2022-09-16T22:26:27.034Z,12.82
2022-09-16T22:28:54.009Z,15.60
2022-09-16T22:31:23.034Z,12.65
2022-09-16T22:33:51.395Z,10.75
2022-09-16T22:36:20.849Z,12.63
2022-09-16T22:39:00.671Z,13.23
2022-09-16T22:41:28.564Z,9.40
2022-09-16T22:43:55.510Z,10.65
2022-09-16T22:46:34.029Z,8.35
2022-09-16T22:49:01.654Z,12.95
2022-09-16T22:51:29.020Z,12.68
2022-09-16T22:53:56.013Z,11.70
2022-09-16T22:56:25.878Z,10.43
2022-09-16T22:58:56.952Z,10.20
2022-09-16T23:01:29.398Z,12.90
2022-09-16T23:03:58.623Z,11.50
2022-09-16T23:06:26.861Z,13.50
2022-09-16T23:08:53.609Z,12.10
2022-09-16T23:11:23.652Z,13.27
2022-09-16T23:13:52.634Z,17.80
2022-09-16T23:16:22.021Z,11.55
2022-09-16T23:18:49.917Z,11.23
2022-09-16T23:21:19.134Z,11.85
2022-09-16T23:23:49.325Z,14.15
2022-09-16T23:26:20.393Z,11.43
2022-09-16T23:28:51.440Z,12.70
2022-09-16T23:31:19.575Z,12.57
2022-09-16T23:33:46.650Z,11.30
2022-09-16T23:36:15.391Z,12.27
2022-09-16T23:38:43.105Z,10.50
2022-09-16T23:41:13.279Z,9.95
2022-09-16T23:43:43.883Z,15.30
2022-09-16T23:46:12.257Z,11.63
2022-09-16T23:48:38.905Z,11.45
2022-09-16T23:51:07.280Z,11.40
2022-09-16T23:53:35.462Z,10.32
2022-09-16T23:56:06.944Z,10.07
2022-09-16T23:58:34.485Z,10.18
